Time;durP1;ratioP1;P1;durP2;ratioP2;P2;SDS_P1;SDS_P2;PMS_P1;PMS_P2;Temp;Humidity;BMP_temperature;BMP_pressure;BME280_temperature;BME280_humidity;BME280_pressure;Samples;Min_cycle;Max_cycle;Signal;HPM_P1;HPM_P2
2023/07/12 00:01:43;;;;;;;;;;;20.30;99.90;;;;;;7306577;19;9494;-70
2023/07/12 00:04:12;;;;;;;;;;;20.20;99.90;;;;;;7302535;19;9236;-70
2023/07/12 00:06:42;;;;;;;;;;;20.10;99.90;;;;;;7304364;19;9340;-70
2023/07/12 00:09:16;;;;;;;;;;;20.10;99.90;;;;;;7303245;19;9266;-70
2023/07/12 00:11:47;;;;;;;;;;;20.00;99.90;;;;;;7304240;19;9458;-69
2023/07/12 00:14:16;;;;;;;;;;;19.90;99.90;;;;;;7303704;19;9194;-70
2023/07/12 00:16:45;;;;;;;;;;;19.80;99.90;;;;;;7303184;19;9260;-70
2023/07/12 00:19:17;;;;;;;;;;;19.80;99.90;;;;;;7302945;19;9342;-70
2023/07/12 00:21:47;;;;;;;;;;;19.80;99.90;;;;;;7310065;19;9386;-70
2023/07/12 00:24:16;;;;;;;;;;;19.80;99.90;;;;;;7302008;19;9309;-70
2023/07/12 00:26:48;;;;;;;;;;;19.80;99.90;;;;;;7305121;19;9238;-70
2023/07/12 00:29:17;;;;;;;;;;;19.70;99.90;;;;;;7302099;19;8944;-70
2023/07/12 00:31:45;;;;;;;;;;;19.80;99.90;;;;;;7303088;19;9268;-70
2023/07/12 00:34:14;;;;;;;;;;;19.70;99.90;;;;;;7302722;19;9455;-70
2023/07/12 00:36:43;;;;;;;;;;;19.70;99.90;;;;;;7307701;19;9244;-70
2023/07/12 00:39:15;;;;;;;;;;;19.60;99.90;;;;;;7300681;19;9261;-70
2023/07/12 00:42:06;;;;;;;;;;;19.60;99.90;;;;;;7304543;19;9674;-69
2023/07/12 00:44:39;;;;;;;;;;;19.70;99.90;;;;;;7300729;19;9279;-70
2023/07/12 00:47:13;;;;;;;;;;;19.80;99.90;;;;;;7302783;19;9498;-69
2023/07/12 00:49:42;;;;;;;;;;;19.80;99.90;;;;;;7299024;19;9429;-70
2023/07/12 00:52:16;;;;;;;;;;;20.00;99.90;;;;;;7305955;19;9248;-69
2023/07/12 00:54:55;;;;;;;;;;;19.90;99.90;;;;;;7303535;19;9268;-70
2023/07/12 00:57:29;;;;;;;;;;;19.80;99.90;;;;;;7302899;19;9630;-70
2023/07/12 01:00:04;;;;;;;;;;;19.70;99.90;;;;;;7301135;19;9312;-70
2023/07/12 01:02:33;;;;;;;;;;;19.70;99.90;;;;;;7302825;19;9347;-70
2023/07/12 01:05:03;;;;;;;;;;;19.60;99.90;;;;;;7301637;19;8945;-70
2023/07/12 01:07:34;;;;;;;;;;;19.50;99.90;;;;;;7311883;19;9293;-70
2023/07/12 01:10:03;;;;;;;;;;;19.50;99.90;;;;;;7308590;19;9520;-70
2023/07/12 01:12:34;;;;;;;;;;;19.40;99.90;;;;;;7309966;19;11173;-69
2023/07/12 01:15:04;;;;;;;;;;;19.40;99.90;;;;;;7309779;19;9741;-70
2023/07/12 01:17:33;;;;;;;;;;;19.40;99.90;;;;;;7309511;19;9464;-70
2023/07/12 01:20:02;;;;;;;;;;;19.40;99.90;;;;;;7307834;19;9435;-69
2023/07/12 01:22:35;;;;;;;;;;;19.30;99.90;;;;;;7315017;19;9571;-69
2023/07/12 01:25:04;;;;;;;;;;;19.40;99.90;;;;;;7306356;19;9233;-69
2023/07/12 01:27:33;;;;;;;;;;;19.30;99.90;;;;;;7308936;19;9410;-70
2023/07/12 01:30:02;;;;;;;;;;;19.40;99.90;;;;;;7308008;19;9259;-69
2023/07/12 01:32:34;;;;;;;;;;;19.40;99.90;;;;;;7309498;19;9734;-70
2023/07/12 01:35:03;;;;;;;;;;;19.40;99.90;;;;;;7313268;19;9500;-70
2023/07/12 01:37:35;;;;;;;;;;;19.50;99.90;;;;;;7309564;19;9271;-70
2023/07/12 01:40:04;;;;;;;;;;;19.50;99.90;;;;;;7309587;19;9427;-70
2023/07/12 01:42:32;;;;;;;;;;;19.50;99.90;;;;;;7309935;19;9308;-70
2023/07/12 01:45:22;;;;;;;;;;;19.50;99.90;;;;;;7302952;19;10708;-69
2023/07/12 01:47:51;;;;;;;;;;;19.60;99.90;;;;;;7308110;19;9450;-69
2023/07/12 01:50:20;;;;;;;;;;;19.60;99.90;;;;;;7306504;19;9573;-70
2023/07/12 01:52:51;;;;;;;;;;;19.70;99.90;;;;;;7310072;19;9746;-70
2023/07/12 01:55:20;;;;;;;;;;;19.70;99.90;;;;;;7308150;19;9406;-70
2023/07/12 01:57:49;;;;;;;;;;;19.70;99.90;;;;;;7306266;19;9425;-70
2023/07/12 02:00:18;;;;;;;;;;;19.60;99.90;;;;;;7307574;19;9094;-70
2023/07/12 02:02:47;;;;;;;;;;;19.40;99.90;;;;;;7309622;19;9472;-69
2023/07/12 02:05:18;;;;;;;;;;;19.50;99.90;;;;;;7309393;19;10920;-69
2023/07/12 02:07:47;;;;;;;;;;;19.40;99.90;;;;;;7308310;19;9311;-70
2023/07/12 02:10:21;;;;;;;;;;;19.50;99.90;;;;;;7308617;19;9250;-70
2023/07/12 02:12:50;;;;;;;;;;;19.60;99.90;;;;;;7306030;19;9730;-70
2023/07/12 02:15:20;;;;;;;;;;;19.60;99.90;;;;;;7307836;19;9000;-70
2023/07/12 02:17:49;;;;;;;;;;;19.60;99.90;;;;;;7306836;19;10496;-70
2023/07/12 02:20:18;;;;;;;;;;;19.60;99.90;;;;;;7307326;19;9232;-70
2023/07/12 02:22:49;;;;;;;;;;;19.70;99.90;;;;;;7311650;19;9268;-70
2023/07/12 02:25:22;;;;;;;;;;;19.70;99.90;;;;;;7305547;19;9495;-69
2023/07/12 02:27:52;;;;;;;;;;;19.80;99.90;;;;;;7302474;19;9298;-70
2023/07/12 02:30:24;;;;;;;;;;;19.80;99.90;;;;;;7307864;19;9330;-69
2023/07/12 02:32:54;;;;;;;;;;;19.80;99.90;;;;;;7308067;19;9284;-70
2023/07/12 02:35:29;;;;;;;;;;;19.80;99.90;;;;;;7311985;19;9459;-70
2023/07/12 02:37:58;;;;;;;;;;;19.90;99.90;;;;;;7306772;19;10038;-70
2023/07/12 02:40:31;;;;;;;;;;;19.80;99.90;;;;;;7306884;19;9302;-70
2023/07/12 02:43:00;;;;;;;;;;;19.80;99.90;;;;;;7308765;19;9260;-70
2023/07/12 02:45:29;;;;;;;;;;;19.80;99.90;;;;;;7304000;19;9328;-70
2023/07/12 02:47:58;;;;;;;;;;;19.70;99.90;;;;;;7307570;19;9107;-70
2023/07/12 02:50:27;;;;;;;;;;;19.70;99.90;;;;;;7305742;19;10322;-70
2023/07/12 02:52:57;;;;;;;;;;;19.80;99.90;;;;;;7307376;19;9228;-70
2023/07/12 02:55:29;;;;;;;;;;;19.90;99.90;;;;;;7305964;19;11545;-70
2023/07/12 02:57:58;;;;;;;;;;;19.90;99.90;;;;;;7306116;19;9292;-69
2023/07/12 03:00:27;;;;;;;;;;;19.90;99.90;;;;;;7302812;19;9586;-69
2023/07/12 03:02:56;;;;;;;;;;;20.00;99.90;;;;;;7309006;19;9429;-69
2023/07/12 03:05:25;;;;;;;;;;;20.10;99.90;;;;;;7306951;19;9418;-70
2023/07/12 03:07:55;;;;;;;;;;;20.10;99.90;;;;;;7305818;19;9284;-70
2023/07/12 03:10:24;;;;;;;;;;;20.00;99.90;;;;;;7306696;19;9256;-69
2023/07/12 03:12:56;;;;;;;;;;;20.00;99.90;;;;;;7306645;19;9196;-69
2023/07/12 03:15:25;;;;;;;;;;;20.00;99.90;;;;;;7305839;19;9440;-69
2023/07/12 03:17:54;;;;;;;;;;;19.90;99.90;;;;;;7306509;19;9276;-70
2023/07/12 03:20:23;;;;;;;;;;;19.90;99.90;;;;;;7304699;19;10164;-70
2023/07/12 03:22:52;;;;;;;;;;;19.90;99.90;;;;;;7312631;19;9255;-70
2023/07/12 03:25:21;;;;;;;;;;;19.80;99.90;;;;;;7303486;19;11222;-70
2023/07/12 03:27:50;;;;;;;;;;;19.70;99.90;;;;;;7305175;19;9369;-70
2023/07/12 03:30:22;;;;;;;;;;;19.60;99.90;;;;;;7305945;19;9245;-69
2023/07/12 03:32:51;;;;;;;;;;;19.40;99.90;;;;;;7307433;19;9430;-69
2023/07/12 03:35:20;;;;;;;;;;;19.30;99.90;;;;;;7310179;19;9392;-69
2023/07/12 03:37:49;;;;;;;;;;;19.20;99.90;;;;;;7306755;19;9237;-70
2023/07/12 03:40:18;;;;;;;;;;;19.00;99.90;;;;;;7303897;19;9264;-69
2023/07/12 03:42:47;;;;;;;;;;;18.90;99.90;;;;;;7307070;19;9228;-69
2023/07/12 03:45:16;;;;;;;;;;;18.80;99.90;;;;;;7303256;19;9425;-69
2023/07/12 03:47:47;;;;;;;;;;;18.70;99.90;;;;;;7304415;19;9403;-70
2023/07/12 03:50:17;;;;;;;;;;;18.60;99.90;;;;;;7302494;19;9497;-70
2023/07/12 03:52:45;;;;;;;;;;;18.60;99.90;;;;;;7305624;19;11581;-69
2023/07/12 03:55:14;;;;;;;;;;;18.80;99.90;;;;;;7305533;19;9240;-70
2023/07/12 03:57:44;;;;;;;;;;;19.10;99.90;;;;;;7304968;19;11261;-70
2023/07/12 04:00:15;;;;;;;;;;;19.20;99.90;;;;;;7303510;19;9259;-69
2023/07/12 04:02:47;;;;;;;;;;;19.30;99.90;;;;;;7304695;19;9512;-75
2023/07/12 04:05:16;;;;;;;;;;;19.50;99.90;;;;;;7303942;19;9666;-69
2023/07/12 04:07:45;;;;;;;;;;;19.50;99.90;;;;;;7306625;19;9465;-69
2023/07/12 04:10:14;;;;;;;;;;;19.60;99.90;;;;;;7303758;19;9248;-70
2023/07/12 04:12:43;;;;;;;;;;;19.50;99.90;;;;;;7304290;19;10581;-69
2023/07/12 04:15:12;;;;;;;;;;;19.40;99.90;;;;;;7306181;19;9719;-69
2023/07/12 04:17:41;;;;;;;;;;;19.30;99.90;;;;;;7304582;19;9322;-70
2023/07/12 04:20:14;;;;;;;;;;;19.20;99.90;;;;;;7302445;19;9543;-70
2023/07/12 04:22:43;;;;;;;;;;;19.20;99.90;;;;;;7304283;19;9597;-69
2023/07/12 04:25:13;;;;;;;;;;;19.10;99.90;;;;;;7299644;19;10832;-70
2023/07/12 04:27:42;;;;;;;;;;;19.20;99.90;;;;;;7300206;19;9574;-69
2023/07/12 04:30:15;;;;;;;;;;;19.10;99.90;;;;;;7301393;19;9581;-70
2023/07/12 04:32:47;;;;;;;;;;;19.00;99.90;;;;;;7302742;19;10045;-69
2023/07/12 04:35:18;;;;;;;;;;;18.90;99.90;;;;;;7304099;19;9472;-70
2023/07/12 04:37:49;;;;;;;;;;;18.90;99.90;;;;;;7303755;19;9449;-70
2023/07/12 04:40:18;;;;;;;;;;;19.00;99.90;;;;;;7301296;19;9489;-70
2023/07/12 04:42:48;;;;;;;;;;;19.10;99.90;;;;;;7302641;19;9288;-70
2023/07/12 04:45:17;;;;;;;;;;;19.20;99.90;;;;;;7302684;19;9660;-69
2023/07/12 04:47:46;;;;;;;;;;;19.20;99.90;;;;;;7305402;19;9857;-69
2023/07/12 04:50:17;;;;;;;;;;;19.10;99.90;;;;;;7301976;19;9245;-70
2023/07/12 04:52:49;;;;;;;;;;;19.00;99.90;;;;;;7301003;19;10763;-69
2023/07/12 04:55:27;;;;;;;;;;;19.10;99.90;;;;;;7303720;19;8944;-69
2023/07/12 04:57:57;;;;;;;;;;;19.10;99.90;;;;;;7303228;19;9445;-70
2023/07/12 05:00:27;;;;;;;;;;;19.00;99.90;;;;;;7299019;19;10276;-70
2023/07/12 05:02:56;;;;;;;;;;;18.90;99.90;;;;;;7302104;19;9411;-69
2023/07/12 05:05:28;;;;;;;;;;;18.80;99.90;;;;;;7298502;19;9446;-69
2023/07/12 05:07:57;;;;;;;;;;;18.80;99.90;;;;;;7303121;19;9546;-69
2023/07/12 05:10:26;;;;;;;;;;;18.70;99.90;;;;;;7300610;19;9320;-69
2023/07/12 05:12:55;;;;;;;;;;;18.70;99.90;;;;;;7303501;19;11144;-69
2023/07/12 05:15:24;;;;;;;;;;;18.90;99.90;;;;;;7306922;19;9288;-69
2023/07/12 05:17:53;;;;;;;;;;;19.00;99.90;;;;;;7303015;19;9147;-69
2023/07/12 05:20:23;;;;;;;;;;;19.00;99.90;;;;;;7301974;19;9273;-69
2023/07/12 05:22:54;;;;;;;;;;;19.10;99.90;;;;;;7302405;19;9536;-70
2023/07/12 05:25:24;;;;;;;;;;;19.20;99.90;;;;;;7300267;19;11073;-70
2023/07/12 05:27:53;;;;;;;;;;;19.20;99.90;;;;;;7302477;19;10989;-69
2023/07/12 05:30:22;;;;;;;;;;;19.20;99.90;;;;;;7300454;19;9398;-70
2023/07/12 05:32:51;;;;;;;;;;;19.10;99.90;;;;;;7302999;19;9400;-70
2023/07/12 05:35:20;;;;;;;;;;;19.20;99.90;;;;;;7305042;19;9480;-71
2023/07/12 05:37:51;;;;;;;;;;;19.20;99.90;;;;;;7301970;19;10823;-69
2023/07/12 05:40:24;;;;;;;;;;;19.30;99.90;;;;;;7302306;19;9252;-70
2023/07/12 05:42:53;;;;;;;;;;;19.40;99.90;;;;;;7301611;19;10153;-69
2023/07/12 05:45:23;;;;;;;;;;;19.60;99.90;;;;;;7302624;19;9339;-70
2023/07/12 05:47:52;;;;;;;;;;;19.60;99.90;;;;;;7302345;19;9422;-70
2023/07/12 05:50:23;;;;;;;;;;;19.50;99.90;;;;;;7301398;19;9224;-69
2023/07/12 05:52:52;;;;;;;;;;;19.50;99.90;;;;;;7309354;19;9567;-69
2023/07/12 05:55:23;;;;;;;;;;;19.50;99.90;;;;;;7307853;19;9240;-69
2023/07/12 05:57:52;;;;;;;;;;;19.60;99.90;;;;;;7310462;19;11187;-71
2023/07/12 06:00:22;;;;;;;;;;;19.60;99.90;;;;;;7307482;19;9222;-68
2023/07/12 06:02:51;;;;;;;;;;;20.30;99.90;;;;;;7306634;19;9413;-67
2023/07/12 06:05:20;;;;;;;;;;;20.40;99.90;;;;;;7307606;19;9780;-73
2023/07/12 06:07:50;;;;;;;;;;;20.40;99.90;;;;;;7307021;19;9606;-67
2023/07/12 06:10:19;;;;;;;;;;;20.60;99.90;;;;;;7306301;19;10350;-68
2023/07/12 06:12:51;;;;;;;;;;;20.50;99.90;;;;;;7308358;19;9464;-68
2023/07/12 06:15:20;;;;;;;;;;;20.40;99.90;;;;;;7311665;19;9865;-67
2023/07/12 06:17:49;;;;;;;;;;;20.00;99.90;;;;;;7306750;19;9454;-68
2023/07/12 06:20:18;;;;;;;;;;;19.80;99.90;;;;;;7306039;19;9336;-68
2023/07/12 06:22:47;;;;;;;;;;;19.60;99.90;;;;;;7305029;19;9277;-67
2023/07/12 06:25:16;;;;;;;;;;;19.60;99.90;;;;;;7302887;19;9541;-67
2023/07/12 06:27:51;;;;;;;;;;;19.40;99.90;;;;;;7305191;19;10334;-68
2023/07/12 06:30:22;;;;;;;;;;;19.30;99.90;;;;;;7302266;19;9152;-67
2023/07/12 06:32:51;;;;;;;;;;;19.40;99.90;;;;;;7304737;19;9756;-67
2023/07/12 06:35:20;;;;;;;;;;;19.10;99.90;;;;;;7312102;19;9245;-67
2023/07/12 06:37:49;;;;;;;;;;;19.30;99.90;;;;;;7304643;19;9557;-66
2023/07/12 06:40:19;;;;;;;;;;;19.30;99.90;;;;;;7305948;19;9253;-67
2023/07/12 06:42:48;;;;;;;;;;;19.20;99.90;;;;;;7307727;19;9498;-67
2023/07/12 06:45:17;;;;;;;;;;;19.40;99.90;;;;;;7302751;19;9550;-67
2023/07/12 06:47:50;;;;;;;;;;;19.40;99.90;;;;;;7305323;19;10562;-67
2023/07/12 06:50:19;;;;;;;;;;;19.60;99.90;;;;;;7305801;19;9353;-67
2023/07/12 06:52:48;;;;;;;;;;;19.50;99.90;;;;;;7306031;19;9527;-66
2023/07/12 06:55:17;;;;;;;;;;;19.60;99.90;;;;;;7302848;19;9356;-66
2023/07/12 06:57:46;;;;;;;;;;;19.80;99.90;;;;;;7306317;19;9390;-67
2023/07/12 07:00:17;;;;;;;;;;;20.00;99.90;;;;;;7306041;19;9255;-67
2023/07/12 07:02:48;;;;;;;;;;;20.10;99.90;;;;;;7306151;19;9268;-67
2023/07/12 07:05:17;;;;;;;;;;;19.90;99.90;;;;;;7306368;19;9732;-67
2023/07/12 07:07:46;;;;;;;;;;;20.40;99.90;;;;;;7305294;19;9246;-67
2023/07/12 07:10:15;;;;;;;;;;;20.70;99.90;;;;;;7303492;19;9399;-67
2023/07/12 07:12:44;;;;;;;;;;;20.60;99.90;;;;;;7305089;19;9489;-67
2023/07/12 07:15:13;;;;;;;;;;;20.90;99.90;;;;;;7308845;19;8945;-67
2023/07/12 07:17:42;;;;;;;;;;;20.50;99.90;;;;;;7303803;19;9387;-67
2023/07/12 07:20:15;;;;;;;;;;;20.40;99.90;;;;;;7304754;19;9556;-67
2023/07/12 07:22:44;;;;;;;;;;;20.40;99.90;;;;;;7305613;19;9418;-67
2023/07/12 07:25:13;;;;;;;;;;;20.40;99.90;;;;;;7298796;19;9346;-67
2023/07/12 07:27:42;;;;;;;;;;;20.30;99.90;;;;;;7302387;19;9476;-67
2023/07/12 07:30:14;;;;;;;;;;;20.60;99.90;;;;;;7302997;19;9269;-66
2023/07/12 07:32:43;;;;;;;;;;;21.00;99.90;;;;;;7303180;19;9716;-67
2023/07/12 07:35:14;;;;;;;;;;;21.00;99.90;;;;;;7305703;19;10691;-67
2023/07/12 07:37:44;;;;;;;;;;;20.70;99.90;;;;;;7304303;19;10727;-68
2023/07/12 07:40:14;;;;;;;;;;;20.60;99.90;;;;;;7304360;19;9237;-67
2023/07/12 07:42:43;;;;;;;;;;;21.00;99.90;;;;;;7306439;19;9439;-67
2023/07/12 07:45:13;;;;;;;;;;;21.00;99.90;;;;;;7304038;19;9469;-66
2023/07/12 07:47:42;;;;;;;;;;;21.10;99.90;;;;;;7304526;19;10859;-67
2023/07/12 07:50:14;;;;;;;;;;;21.00;99.90;;;;;;7304416;19;9340;-67
2023/07/12 07:52:43;;;;;;;;;;;21.00;99.90;;;;;;7305168;19;9602;-66
2023/07/12 07:55:12;;;;;;;;;;;20.80;99.90;;;;;;7303702;19;9289;-67
2023/07/12 07:57:41;;;;;;;;;;;20.80;99.90;;;;;;7305144;19;9449;-68
2023/07/12 08:00:11;;;;;;;;;;;21.30;99.90;;;;;;7303481;19;9577;-67
2023/07/12 08:02:41;;;;;;;;;;;21.50;99.90;;;;;;7303429;19;9457;-67
2023/07/12 08:05:11;;;;;;;;;;;21.70;99.90;;;;;;7303388;19;9494;-68
2023/07/12 08:07:46;;;;;;;;;;;21.70;99.90;;;;;;7304170;19;9270;-67
2023/07/12 08:10:17;;;;;;;;;;;21.70;99.90;;;;;;7310801;19;9330;-67
2023/07/12 08:12:46;;;;;;;;;;;22.00;99.90;;;;;;7304600;19;9373;-67
2023/07/12 08:15:16;;;;;;;;;;;22.10;99.90;;;;;;7307222;19;9214;-67
2023/07/12 08:17:44;;;;;;;;;;;22.10;99.90;;;;;;7302021;19;9184;-67
2023/07/12 08:20:14;;;;;;;;;;;22.50;99.90;;;;;;7300775;19;9690;-67
2023/07/12 08:22:46;;;;;;;;;;;22.70;99.90;;;;;;7303617;19;9596;-67
2023/07/12 08:25:16;;;;;;;;;;;23.10;99.90;;;;;;7301485;19;9256;-67
2023/07/12 08:27:46;;;;;;;;;;;22.90;99.90;;;;;;7301862;19;9227;-67
2023/07/12 08:30:16;;;;;;;;;;;23.00;99.90;;;;;;7303931;19;9836;-67
2023/07/12 08:32:45;;;;;;;;;;;23.00;99.90;;;;;;7304661;19;9379;-67
2023/07/12 08:35:14;;;;;;;;;;;22.80;99.90;;;;;;7308767;19;9494;-67
2023/07/12 08:37:46;;;;;;;;;;;22.50;99.90;;;;;;7305189;19;10717;-67
2023/07/12 08:40:17;;;;;;;;;;;22.50;99.90;;;;;;7302116;19;9394;-67
2023/07/12 08:42:47;;;;;;;;;;;22.30;99.90;;;;;;7303367;19;9482;-67
2023/07/12 08:45:28;;;;;;;;;;;22.10;99.90;;;;;;7314936;19;9558;-67
2023/07/12 08:48:01;;;;;;;;;;;21.60;99.90;;;;;;7304510;19;9375;-67
2023/07/12 08:50:35;;;;;;;;;;;21.40;99.90;;;;;;7304521;19;9458;-67
2023/07/12 08:53:10;;;;;;;;;;;21.30;99.90;;;;;;7303973;19;9553;-67
2023/07/12 08:55:40;;;;;;;;;;;21.30;99.90;;;;;;7300884;19;9343;-67
2023/07/12 08:58:20;;;;;;;;;;;21.20;99.90;;;;;;7304683;19;11616;-67
2023/07/12 09:00:54;;;;;;;;;;;21.10;99.90;;;;;;7301050;19;9275;-67
2023/07/12 09:03:23;;;;;;;;;;;21.20;99.90;;;;;;7306149;19;9193;-67
2023/07/12 09:05:52;;;;;;;;;;;21.20;99.90;;;;;;7302326;19;9437;-67
2023/07/12 09:08:32;;;;;;;;;;;21.20;99.90;;;;;;7302927;19;9319;-67
2023/07/12 09:11:02;;;;;;;;;;;21.10;99.90;;;;;;7301371;19;9463;-67
2023/07/12 09:13:36;;;;;;;;;;;21.30;99.90;;;;;;7310569;19;10839;-67
2023/07/12 09:16:07;;;;;;;;;;;21.20;99.90;;;;;;7300236;19;10907;-66
2023/07/12 09:18:39;;;;;;;;;;;21.20;99.90;;;;;;7303661;19;9268;-66
2023/07/12 09:21:16;;;;;;;;;;;21.30;99.90;;;;;;7301766;19;9292;-67
2023/07/12 09:23:48;;;;;;;;;;;21.40;99.90;;;;;;7301207;19;9271;-67
2023/07/12 09:26:25;;;;;;;;;;;21.30;99.90;;;;;;7301152;19;9128;-67
2023/07/12 09:28:59;;;;;;;;;;;21.50;99.90;;;;;;7309026;19;9500;-67
2023/07/12 09:31:32;;;;;;;;;;;21.60;99.90;;;;;;7309913;19;10789;-66
2023/07/12 09:34:07;;;;;;;;;;;21.50;99.90;;;;;;7308054;19;8944;-67
2023/07/12 09:36:41;;;;;;;;;;;21.20;99.90;;;;;;7314147;19;9546;-67
2023/07/12 09:39:14;;;;;;;;;;;21.40;99.90;;;;;;7308450;19;9280;-68
2023/07/12 09:41:51;;;;;;;;;;;21.40;99.90;;;;;;7309226;19;9345;-67
2023/07/12 09:44:20;;;;;;;;;;;21.40;99.90;;;;;;7308134;19;9119;-67
2023/07/12 09:46:56;;;;;;;;;;;21.60;99.90;;;;;;7309234;19;10905;-67
2023/07/12 09:49:28;;;;;;;;;;;22.30;99.90;;;;;;7307901;19;9275;-67
2023/07/12 09:52:07;;;;;;;;;;;22.60;99.90;;;;;;7310068;19;8944;-67
2023/07/12 09:54:48;;;;;;;;;;;22.40;99.90;;;;;;7308814;19;9269;-67
2023/07/12 09:57:39;;;;;;;;;;;22.30;99.90;;;;;;7307983;19;9407;-67
2023/07/12 10:00:22;;;;;;;;;;;21.80;99.90;;;;;;7308651;19;9305;-68
2023/07/12 10:03:13;;;;;;;;;;;21.80;99.90;;;;;;7304840;19;10340;-68
2023/07/12 10:05:49;;;;;;;;;;;21.90;99.90;;;;;;7299976;19;9076;-68
2023/07/12 10:08:22;;;;;;;;;;;21.90;99.90;;;;;;7307176;19;9499;-68
2023/07/12 10:11:04;;;;;;;;;;;22.00;99.90;;;;;;7306559;19;9684;-68
2023/07/12 10:13:44;;;;;;;;;;;21.90;99.90;;;;;;7312256;19;9429;-68
2023/07/12 10:16:18;;;;;;;;;;;21.90;99.90;;;;;;7308463;19;9272;-68
2023/07/12 10:18:50;;;;;;;;;;;22.00;99.90;;;;;;7306993;19;9519;-68
2023/07/12 10:21:23;;;;;;;;;;;21.90;99.90;;;;;;7300908;19;9459;-69
2023/07/12 10:23:58;;;;;;;;;;;21.90;99.90;;;;;;7301694;19;9780;-69
2023/07/12 10:26:31;;;;;;;;;;;21.90;99.90;;;;;;7304736;19;9248;-68
2023/07/12 10:29:08;;;;;;;;;;;21.60;99.90;;;;;;7305507;19;9672;-69
2023/07/12 10:31:48;;;;;;;;;;;21.80;99.90;;;;;;7305989;19;9432;-69
2023/07/12 10:34:29;;;;;;;;;;;22.00;99.90;;;;;;7306829;19;10853;-69
2023/07/12 10:37:03;;;;;;;;;;;22.30;99.90;;;;;;7313405;19;9395;-69
2023/07/12 10:39:32;;;;;;;;;;;22.20;99.90;;;;;;7305023;19;9366;-69
2023/07/12 10:42:14;;;;;;;;;;;22.10;99.90;;;;;;7307967;19;9303;-69
2023/07/12 10:44:53;;;;;;;;;;;21.90;99.90;;;;;;7306808;19;9236;-70
2023/07/12 10:47:26;;;;;;;;;;;21.70;99.90;;;;;;7306248;19;9265;-70
2023/07/12 10:50:00;;;;;;;;;;;21.60;99.90;;;;;;7306770;19;9241;-70
2023/07/12 10:52:31;;;;;;;;;;;21.40;99.90;;;;;;7303107;19;9438;-69
2023/07/12 10:55:21;;;;;;;;;;;21.50;99.90;;;;;;7302988;19;9291;-69
2023/07/12 10:57:54;;;;;;;;;;;21.60;99.90;;;;;;7301876;19;9414;-70
2023/07/12 11:00:31;;;;;;;;;;;22.00;99.90;;;;;;7300880;19;9107;-70
2023/07/12 11:03:18;;;;;;;;;;;22.50;99.90;;;;;;7300533;19;10539;-70
2023/07/12 11:06:00;;;;;;;;;;;22.70;99.90;;;;;;7300611;19;9854;-70
2023/07/12 11:08:42;;;;;;;;;;;22.70;99.90;;;;;;7300767;19;9614;-70
2023/07/12 11:11:35;;;;;;;;;;;22.70;99.90;;;;;;7304545;19;9220;-71
2023/07/12 11:14:17;;;;;;;;;;;23.00;99.90;;;;;;7309894;19;9289;-70
2023/07/12 11:16:50;;;;;;;;;;;23.00;99.90;;;;;;7308438;19;9408;-70
2023/07/12 11:19:51;;;;;;;;;;;22.90;99.90;;;;;;7303394;19;9480;-70
2023/07/12 11:22:23;;;;;;;;;;;22.80;99.90;;;;;;7305592;19;9280;-70
2023/07/12 11:25:01;;;;;;;;;;;22.60;99.90;;;;;;7303500;19;9232;-70
2023/07/12 11:27:57;;;;;;;;;;;23.20;99.20;;;;;;7304605;19;9256;-70
2023/07/12 11:30:44;;;;;;;;;;;23.00;99.50;;;;;;7304314;19;10397;-70
2023/07/12 11:33:23;;;;;;;;;;;22.50;99.10;;;;;;7304427;19;9240;-70
2023/07/12 11:35:59;;;;;;;;;;;22.90;99.00;;;;;;7308384;19;11751;-70
2023/07/12 11:38:33;;;;;;;;;;;23.10;98.70;;;;;;7304344;19;9249;-70
2023/07/12 11:41:15;;;;;;;;;;;22.70;97.70;;;;;;7301189;19;9486;-69
2023/07/12 11:43:45;;;;;;;;;;;23.10;98.50;;;;;;7295819;19;10120;-69
2023/07/12 11:46:21;;;;;;;;;;;23.70;96.70;;;;;;7296525;19;9287;-69
2023/07/12 11:48:57;;;;;;;;;;;24.10;93.50;;;;;;7292063;19;9877;-69
2023/07/12 11:51:36;;;;;;;;;;;24.40;92.20;;;;;;7301889;19;9113;-69
2023/07/12 11:54:19;;;;;;;;;;;24.60;91.10;;;;;;7300204;19;9901;-69
2023/07/12 11:56:50;;;;;;;;;;;24.80;88.60;;;;;;7306281;19;10358;-69
2023/07/12 11:59:21;;;;;;;;;;;24.90;87.00;;;;;;7301285;19;9298;-69
2023/07/12 12:01:55;;;;;;;;;;;24.90;84.90;;;;;;7301169;19;9503;-69
2023/07/12 12:04:26;;;;;;;;;;;25.00;83.10;;;;;;7303781;19;9411;-69
2023/07/12 12:06:59;;;;;;;;;;;24.80;80.80;;;;;;7305276;19;10600;-69
2023/07/12 12:09:33;;;;;;;;;;;24.60;82.10;;;;;;7303338;19;9525;-70
2023/07/12 12:12:04;;;;;;;;;;;24.80;82.40;;;;;;7304131;19;9185;-69
2023/07/12 12:14:41;;;;;;;;;;;24.90;82.00;;;;;;7305661;19;9496;-69
2023/07/12 12:17:17;;;;;;;;;;;25.10;81.00;;;;;;7304727;19;9085;-69
2023/07/12 12:19:51;;;;;;;;;;;24.90;80.30;;;;;;7304049;19;10736;-70
2023/07/12 12:22:26;;;;;;;;;;;25.10;80.90;;;;;;7300023;19;10467;-69
2023/07/12 12:24:58;;;;;;;;;;;25.30;79.60;;;;;;7301094;19;9229;-69
2023/07/12 12:27:36;;;;;;;;;;;25.40;79.20;;;;;;7301836;19;9131;-69
2023/07/12 12:30:22;;;;;;;;;;;25.40;78.90;;;;;;7297180;19;9257;-69
2023/07/12 12:33:03;;;;;;;;;;;25.50;77.70;;;;;;7305617;19;9281;-69
2023/07/12 12:35:34;;;;;;;;;;;25.60;76.90;;;;;;7303686;19;9480;-69
2023/07/12 12:38:20;;;;;;;;;;;25.50;76.40;;;;;;7304053;19;9258;-69
2023/07/12 12:40:55;;;;;;;;;;;25.50;76.70;;;;;;7302841;19;9342;-69
2023/07/12 12:43:24;;;;;;;;;;;25.30;76.20;;;;;;7302949;19;9443;-69
2023/07/12 12:45:53;;;;;;;;;;;25.10;76.70;;;;;;7303141;19;10940;-69
2023/07/12 12:48:27;;;;;;;;;;;25.00;76.20;;;;;;7303527;19;9634;-69
2023/07/12 12:50:57;;;;;;;;;;;24.90;75.60;;;;;;7302896;19;9433;-69
2023/07/12 12:53:26;;;;;;;;;;;24.70;73.20;;;;;;7303609;19;9213;-69
2023/07/12 12:55:55;;;;;;;;;;;24.80;74.50;;;;;;7304140;19;9258;-69
2023/07/12 12:58:24;;;;;;;;;;;24.90;74.50;;;;;;7304601;19;9581;-69
2023/07/12 13:00:54;;;;;;;;;;;25.10;73.90;;;;;;7302057;19;10764;-69
2023/07/12 13:03:25;;;;;;;;;;;25.20;72.80;;;;;;7303248;19;9303;-69
2023/07/12 13:05:55;;;;;;;;;;;25.30;72.90;;;;;;7302638;19;9509;-69
2023/07/12 13:08:24;;;;;;;;;;;25.20;72.20;;;;;;7302288;19;9260;-69
2023/07/12 13:10:53;;;;;;;;;;;24.80;72.50;;;;;;7303434;19;9241;-69
2023/07/12 13:13:25;;;;;;;;;;;24.50;71.60;;;;;;7307430;19;9295;-69
2023/07/12 13:15:54;;;;;;;;;;;24.90;73.20;;;;;;7303171;19;9272;-69
2023/07/12 13:18:25;;;;;;;;;;;24.90;69.80;;;;;;7305410;19;9403;-69
2023/07/12 13:20:55;;;;;;;;;;;24.90;70.90;;;;;;7302920;19;9458;-69
2023/07/12 13:23:26;;;;;;;;;;;25.10;71.00;;;;;;7303393;19;9010;-69
2023/07/12 13:25:55;;;;;;;;;;;25.10;71.20;;;;;;7302531;19;9615;-69
2023/07/12 13:28:24;;;;;;;;;;;24.90;70.50;;;;;;7303737;19;9263;-70
2023/07/12 13:30:53;;;;;;;;;;;25.10;71.00;;;;;;7300848;19;9396;-69
2023/07/12 13:33:28;;;;;;;;;;;24.10;68.30;;;;;;7301433;19;9498;-69
2023/07/12 13:35:57;;;;;;;;;;;24.50;71.10;;;;;;7306187;19;9379;-69
2023/07/12 13:38:26;;;;;;;;;;;24.80;71.00;;;;;;7302901;19;9260;-69
2023/07/12 13:40:58;;;;;;;;;;;25.10;70.60;;;;;;7301954;19;9334;-69
2023/07/12 13:43:27;;;;;;;;;;;25.20;70.10;;;;;;7303824;19;9355;-69
2023/07/12 13:45:56;;;;;;;;;;;25.10;69.40;;;;;;7300524;19;9732;-69
2023/07/12 13:48:28;;;;;;;;;;;24.70;69.40;;;;;;7300324;19;9300;-69
2023/07/12 13:50:57;;;;;;;;;;;24.70;68.30;;;;;;7301562;19;9272;-69
2023/07/12 13:53:26;;;;;;;;;;;24.90;70.40;;;;;;7301840;19;9481;-70
2023/07/12 13:55:55;;;;;;;;;;;25.00;69.70;;;;;;7302730;19;9272;-69
2023/07/12 13:58:24;;;;;;;;;;;25.30;68.90;;;;;;7300372;19;9174;-69
2023/07/12 14:00:55;;;;;;;;;;;24.90;65.60;;;;;;7300760;19;9634;-69
2023/07/12 14:03:26;;;;;;;;;;;24.70;66.80;;;;;;7300729;19;9213;-69
2023/07/12 14:05:55;;;;;;;;;;;25.00;68.80;;;;;;7300585;19;9240;-69
2023/07/12 14:08:25;;;;;;;;;;;24.90;67.20;;;;;;7301017;19;8996;-69
2023/07/12 14:10:53;;;;;;;;;;;25.10;68.00;;;;;;7300894;19;10457;-70
2023/07/12 14:13:23;;;;;;;;;;;25.00;65.90;;;;;;7308597;19;12929;-71
2023/07/12 14:15:52;;;;;;;;;;;25.10;65.50;;;;;;7308114;19;10614;-70
2023/07/12 14:18:21;;;;;;;;;;;25.30;67.00;;;;;;7306595;19;10571;-69
2023/07/12 14:20:53;;;;;;;;;;;25.30;65.30;;;;;;7309268;19;9249;-70
2023/07/12 14:23:25;;;;;;;;;;;25.50;66.60;;;;;;7309128;19;9252;-69
2023/07/12 14:25:54;;;;;;;;;;;25.50;65.60;;;;;;7306813;19;9524;-69
2023/07/12 14:28:23;;;;;;;;;;;25.40;64.80;;;;;;7308322;19;9107;-69
2023/07/12 14:30:53;;;;;;;;;;;25.30;65.10;;;;;;7307361;19;9461;-69
2023/07/12 14:33:34;;;;;;;;;;;24.60;65.10;;;;;;7306197;19;11191;-69
2023/07/12 14:36:07;;;;;;;;;;;25.00;65.70;;;;;;7311765;19;9348;-68
2023/07/12 14:38:36;;;;;;;;;;;25.00;64.80;;;;;;7307877;19;10945;-69
2023/07/12 14:41:07;;;;;;;;;;;25.10;64.50;;;;;;7306630;19;9571;-70
2023/07/12 14:43:37;;;;;;;;;;;25.30;64.90;;;;;;7306499;19;9290;-69
2023/07/12 14:46:06;;;;;;;;;;;25.40;64.60;;;;;;7307295;19;9260;-70
2023/07/12 14:48:34;;;;;;;;;;;25.30;64.60;;;;;;7306681;19;9591;-69
2023/07/12 14:51:07;;;;;;;;;;;25.30;62.40;;;;;;7306325;19;9268;-69
2023/07/12 14:53:36;;;;;;;;;;;25.40;63.90;;;;;;7309628;19;9248;-69
2023/07/12 14:56:05;;;;;;;;;;;25.50;63.90;;;;;;7307317;19;9571;-69